Airport View

Enter AWOS ICAO identifier for current METAR.

ex. KFNL

KLDJ 270035Z AUTO 29008G14KT 10SM CLR 05/M03 A2981 RMK AO2 T00461027

27 Jan 2020 00:24

Frequency: 124.025

Phone: 908-862-7383

Other Area AWOS: KEWR - KJRB - KMMU - KCDW

TAF KEWR 262324Z 2700/2806 27013KT P6SM BKN050 FM270300 24007KT P6SM SCT040 SCT070 SCT100 FM271500 27015G22KT P6SM BKN040 FM272200 28012KT P6SM BKN080